• Join FlightAware (Why Join?)
  • Login
  • US Flag 
12:21AM EDT


 

Airport Tracker/Info


-or-


 

Live Flight TrackerFlight Track Log ✈ LXJ342 ✈ 03-May-2013 ✈ KPWK - KOMA

Flight Track Log - Related Links

Times and Time Zones

All times are in EDT time to prevent confusion due to time zone crossing. See the LXJ342 flight status page for this flight to view local times or setup timezone preferences in your user account.

Time Position Orientation Groundspeed Altitude Reporting Facility
EDT Latitude Longitude Course Direction KTS MPH feet Rate Location/Type
04:05PM 42.1167 -87.8500 347° North 234 269 2,200  Level Chicago TRACON
04:05PM 42.1447 -87.8586 347° North 215 247 2,700 2,280 Climbing Chicago Center
04:06PM 42.1894 -87.9583 301° West 265 305 5,800 3,480 Climbing Chicago Center
04:07PM 42.1858 -88.0642 267° West 284 327 10,000 3,180 Climbing Chicago Center
04:08PM 42.1617 -88.1658 252° West 287 330 12,500 2,460 Climbing Chicago Center
04:09PM 42.1172 -88.2758 241° Southwest 336 387 15,200 2,940 Climbing Chicago Center
04:10PM 42.0472 -88.3956 232° Southwest 340 391 18,600 2,700 Climbing Chicago Center
04:11PM 41.9836 -88.5019 231° Southwest 364 419 20,900 2,100 Climbing Chicago Center
04:12PM 41.9303 -88.6256 240° Southwest 393 452 23,000 1,500 Climbing Chicago Center
04:14PM 41.9011 -88.7756 255° West 417 480 24,000 1,320 Climbing Chicago Center
04:15PM 41.8908 -88.9286 265° West 423 487 25,800 1,800 Climbing Chicago Center
04:16PM 41.8844 -89.1181 267° West 425 489 27,800 1,500 Climbing Chicago Center
04:17PM 41.8792 -89.2814 268° West 441 507 29,000 1,020 Climbing Chicago Center
04:18PM 41.8722 -89.4511 267° West 457 526 30,000 1,140 Climbing Chicago Center
04:19PM 41.8653 -89.6225 267° West 463 533 31,400 960 Climbing Chicago Center
04:20PM 41.8583 -89.7981 267° West 473 544 32,000 240 Climbing Chicago Center
04:21PM 41.8517 -89.9900 267° West 480 552 32,000  Level Chicago Center
04:22PM 41.8444 -90.1653 267° West 476 548 32,000  Level Chicago Center
04:23PM 41.8367 -90.3364 267° West 467 537 32,000  Level Chicago Center
04:24PM 41.8272 -90.5450 267° West 469 540 32,000  Level Chicago Center
04:25PM 41.8167 -90.7250 266° West 486 559 32,000  Level Chicago Center
04:26PM 41.8081 -90.8986 266° West 474 545 32,000  Level Chicago Center
04:27PM 41.7983 -91.0747 266° West 475 547 32,000  Level Chicago Center
04:28PM 41.7892 -91.2533 266° West 479 551 32,000  Level Chicago Center
04:29PM 41.7792 -91.4311 266° West 481 554 32,000  Level Chicago Center
04:30PM 41.7672 -91.6456 266° West 482 555 32,000  Level Chicago Center
04:31PM 41.7572 -91.8239 266° West 483 556 32,000  Level Chicago Center
04:32PM 41.7461 -92.0025 265° West 483 556 32,000  Level Chicago Center
04:33PM 41.7353 -92.1803 265° West 481 554 32,000  Level Chicago Center
04:34PM 41.7236 -92.3592 265° West 483 556 32,000  Level Chicago Center
04:35PM 41.7106 -92.5761 265° West 487 560 32,000  Level Chicago Center
04:36PM 41.6972 -92.7575 264° West 487 560 32,000  Level Minneapolis Center
04:37PM 41.6867 -92.9150 265° West 489 563 32,000  Level Minneapolis Center
04:38PM 41.6719 -93.1297 265° West 488 562 32,000  Level Minneapolis Center
04:39PM 41.6594 -93.3097 265° West 490 564 32,000  Level Minneapolis Center
04:40PM 41.6461 -93.4883 264° West 489 563 32,000  Level Minneapolis Center
04:41PM 41.6350 -93.6628 265° West 481 554 32,000  Level Minneapolis Center
04:42PM 41.6217 -93.8417 264° West 485 558 32,000 -900 Level Minneapolis Center
04:43PM 41.6039 -94.0592 264° West 493 567 30,200 -2,040 Descending Minneapolis Center
04:45PM 41.5889 -94.2372 264° West 489 563 27,800 -2,400 Descending Minneapolis Center
04:46PM 41.5742 -94.4253 264° West 472 543 25,300 -2,280 Descending Minneapolis Center
04:47PM 41.5603 -94.5925 264° West 455 524 23,100 -2,160 Descending Minneapolis Center
04:48PM 41.5464 -94.7489 263° West 426 490 20,900 -2,040 Descending Minneapolis Center
04:49PM 41.5342 -94.8900 263° West 386 444 19,000 -1,620 Descending Minneapolis Center
04:50PM 41.5236 -95.0144 264° West 346 398 17,600 -1,620 Descending Minneapolis Center
04:50PM 41.5256 -95.1100 272° West 321 369 16,400 -1,560 Descending Minneapolis Center
04:51PM 41.5144 -95.1331 237° Southwest 326 375 16,000 -1,500 Descending Minneapolis Center
04:51PM 41.5383 -95.2311 288° West 330 380 14,900 -1,800 Descending Minneapolis Center
04:52PM 41.5419 -95.2742 276° West 326 375 14,200 -1,500 Descending Minneapolis Center
04:52PM 41.5589 -95.3428 288° West 318 366 13,400 -1,680 Descending Minneapolis Center
04:53PM 41.5633 -95.3858 278° West 319 367 12,500 -1,680 Descending Minneapolis Center
04:53PM 41.5775 -95.4575 285° West 311 358 11,700 -1,260 Descending Minneapolis Center
04:54PM 41.5814 -95.4969 278° West 314 361 11,200 -1,140 Descending Minneapolis Center
04:54PM 41.5939 -95.5753 282° West 304 350 10,600 -1,020 Descending Minneapolis Center
04:55PM 41.5983 -95.6072 281° West 309 356 10,200 -600 Descending Minneapolis Center
04:55PM 41.6075 -95.6825 279° West 292 336 10,000 -240 Descending Minneapolis Center
04:56PM 41.6122 -95.7128 282° West 301 346 10,000  Level Minneapolis Center
04:56PM 41.6228 -95.7867 281° West 288 331 10,000 -240 Level Minneapolis Center
04:57PM 41.6244 -95.8281 273° West 276 318 9,800 -600 Descending Minneapolis Center
04:57PM 41.6114 -95.8661 245° Southwest 241 277 9,500 -1,080 Descending Minneapolis Center
04:58PM 41.5836 -95.8994 222° Southwest 256 295 8,700 -1,200 Descending Minneapolis Center
04:58PM 41.5561 -95.9169 205° Southwest 239 275 8,200 -1,080 Descending Minneapolis Center
04:59PM 41.5236 -95.8842 143° Southeast 241 277 7,600 -1,140 Descending Minneapolis Center
04:59PM 41.4967 -95.8711 160° South 225 259 7,100 -1,080 Descending Minneapolis Center
05:00PM 41.4689 -95.8406 140° Southeast 231 266 6,500 -1,020 Descending Minneapolis Center
05:01PM 41.4411 -95.8247 157° South 220 253 6,000 -540 Descending Minneapolis Center
05:01PM 41.4167 -95.7969 140° Southeast 224 258 6,000 -300 Level Minneapolis Center
05:02PM 41.3903 -95.7833 159° South 213 245 5,700 -780 Descending Minneapolis Center
05:02PM 41.3656 -95.7569 141° Southeast 218 251 5,200 -780 Descending Minneapolis Center
05:02PM 41.3439 -95.7444 157° South 211 243 5,000 -240 Descending Minneapolis Center
05:03PM 41.3167 -95.7169 143° Southeast 211 243 5,000  Level Minneapolis Center
05:03PM 41.2972 -95.7056 156° South 194 223 5,000  Level Minneapolis Center
05:04PM 41.2694 -95.6806 146° Southeast 203 234 5,000  Level Minneapolis Center
05:04PM 41.2506 -95.6669 152° Southeast 199 229 5,000  Level Minneapolis Center
05:05PM 41.2111 -95.6361 150° Southeast 200 230 5,000  Level Minneapolis Center
05:06PM 41.1578 -95.5947 150° Southeast 204 235 5,000 -60 Level Minneapolis Center
05:07PM 41.1131 -95.5608 150° Southeast 202 232 4,900 -540 Descending Minneapolis Center
05:08PM 41.0653 -95.5253 151° Southeast 200 230 4,000 -720 Descending Minneapolis Center
05:09PM 41.0356 -95.5847 236° Southwest 181 208 3,500 -540 Descending Minneapolis Center
05:10PM 41.0250 -95.6372 255° West 182 209 3,000 -300 Descending Minneapolis Center
05:11PM 41.0583 -95.6736 321° Northwest 162 186 3,000  Level Minneapolis Center
05:12PM 41.0994 -95.7208 319° Northwest 151 174 3,000  Level Minneapolis Center
05:13PM 41.1331 -95.7419 335° Northwest 150 173 3,000  Level Minneapolis Center
05:14PM 41.1694 -95.7694 330° Northwest 149 171 3,000  Level Minneapolis Center
05:16PM 41.2164 -95.8094 327° Northwest 154 177 3,000 -300 Level Minneapolis Center
05:17PM 41.2397 -95.8300 326° Northwest 150 173 2,400 -720 Descending Minneapolis Center
05:18PM 41.2744 -95.8664 322° Northwest 117 135 1,600 -660 Descending Minneapolis Center
05:19PM 41.2989 -95.8867 328° Northwest 125 144 1,000 -540 Descending Minneapolis Center